sensor_id;sensor_type;location;lat;lon;timestamp;P1;durP1;ratioP1;P2;durP2;ratioP2
3597;SDS011;1813;52.016;8.714;2023-04-15T00:01:08;12.97;;;8.97;;
3597;SDS011;1813;52.016;8.714;2023-04-15T00:03:43;10.83;;;8.73;;
3597;SDS011;1813;52.016;8.714;2023-04-15T00:06:21;10.20;;;8.33;;
3597;SDS011;1813;52.016;8.714;2023-04-15T00:08:57;10.63;;;8.27;;
3597;SDS011;1813;52.016;8.714;2023-04-15T00:11:34;12.07;;;9.53;;
3597;SDS011;1813;52.016;8.714;2023-04-15T00:14:08;16.03;;;10.40;;
3597;SDS011;1813;52.016;8.714;2023-04-15T00:16:43;15.47;;;10.17;;
3597;SDS011;1813;52.016;8.714;2023-04-15T00:19:19;13.27;;;10.33;;
3597;SDS011;1813;52.016;8.714;2023-04-15T00:21:58;13.23;;;9.90;;
3597;SDS011;1813;52.016;8.714;2023-04-15T00:24:33;12.90;;;9.80;;
3597;SDS011;1813;52.016;8.714;2023-04-15T00:27:08;15.73;;;10.60;;
3597;SDS011;1813;52.016;8.714;2023-04-15T00:29:43;17.90;;;10.70;;
3597;SDS011;1813;52.016;8.714;2023-04-15T00:32:19;13.13;;;10.40;;
3597;SDS011;1813;52.016;8.714;2023-04-15T00:34:53;11.20;;;9.10;;
3597;SDS011;1813;52.016;8.714;2023-04-15T00:37:30;20.20;;;9.50;;
3597;SDS011;1813;52.016;8.714;2023-04-15T00:40:05;12.13;;;9.83;;
3597;SDS011;1813;52.016;8.714;2023-04-15T00:42:45;13.20;;;9.73;;
3597;SDS011;1813;52.016;8.714;2023-04-15T00:45:19;13.60;;;10.10;;
3597;SDS011;1813;52.016;8.714;2023-04-15T00:47:52;14.57;;;10.33;;
3597;SDS011;1813;52.016;8.714;2023-04-15T00:50:26;12.97;;;10.00;;
3597;SDS011;1813;52.016;8.714;2023-04-15T00:53:03;12.57;;;9.93;;
3597;SDS011;1813;52.016;8.714;2023-04-15T00:55:36;15.70;;;11.50;;
3597;SDS011;1813;52.016;8.714;2023-04-15T00:58:10;16.37;;;11.30;;
3597;SDS011;1813;52.016;8.714;2023-04-15T01:00:45;15.53;;;11.67;;
3597;SDS011;1813;52.016;8.714;2023-04-15T01:03:23;14.80;;;11.57;;
3597;SDS011;1813;52.016;8.714;2023-04-15T01:05:57;15.20;;;11.43;;
3597;SDS011;1813;52.016;8.714;2023-04-15T01:08:35;17.23;;;12.70;;
3597;SDS011;1813;52.016;8.714;2023-04-15T01:11:09;17.33;;;12.57;;
3597;SDS011;1813;52.016;8.714;2023-04-15T01:13:44;17.60;;;12.53;;
3597;SDS011;1813;52.016;8.714;2023-04-15T01:16:18;20.97;;;13.27;;
3597;SDS011;1813;52.016;8.714;2023-04-15T01:18:52;17.47;;;13.30;;
3597;SDS011;1813;52.016;8.714;2023-04-15T01:21:27;19.10;;;13.20;;
3597;SDS011;1813;52.016;8.714;2023-04-15T01:24:03;18.27;;;13.50;;
3597;SDS011;1813;52.016;8.714;2023-04-15T01:26:44;18.93;;;13.43;;
3597;SDS011;1813;52.016;8.714;2023-04-15T01:29:19;22.80;;;14.53;;
3597;SDS011;1813;52.016;8.714;2023-04-15T01:31:54;19.53;;;14.40;;
3597;SDS011;1813;52.016;8.714;2023-04-15T01:34:30;19.97;;;14.60;;
3597;SDS011;1813;52.016;8.714;2023-04-15T01:37:04;19.87;;;14.20;;
3597;SDS011;1813;52.016;8.714;2023-04-15T01:39:37;20.27;;;15.40;;
3597;SDS011;1813;52.016;8.714;2023-04-15T01:42:14;19.10;;;14.07;;
3597;SDS011;1813;52.016;8.714;2023-04-15T01:44:48;20.77;;;15.17;;
3597;SDS011;1813;52.016;8.714;2023-04-15T01:47:23;19.20;;;14.90;;
3597;SDS011;1813;52.016;8.714;2023-04-15T01:49:57;21.50;;;15.40;;
3597;SDS011;1813;52.016;8.714;2023-04-15T01:52:32;23.57;;;15.67;;
3597;SDS011;1813;52.016;8.714;2023-04-15T01:55:07;29.53;;;15.10;;
3597;SDS011;1813;52.016;8.714;2023-04-15T01:57:44;20.80;;;15.17;;
3597;SDS011;1813;52.016;8.714;2023-04-15T02:00:18;19.80;;;15.10;;
3597;SDS011;1813;52.016;8.714;2023-04-15T02:02:52;21.10;;;14.83;;
3597;SDS011;1813;52.016;8.714;2023-04-15T02:05:28;19.77;;;15.10;;
3597;SDS011;1813;52.016;8.714;2023-04-15T02:08:03;19.40;;;14.10;;
3597;SDS011;1813;52.016;8.714;2023-04-15T02:10:37;18.80;;;13.83;;
3597;SDS011;1813;52.016;8.714;2023-04-15T02:13:13;18.93;;;14.20;;
3597;SDS011;1813;52.016;8.714;2023-04-15T02:15:47;18.03;;;13.77;;
3597;SDS011;1813;52.016;8.714;2023-04-15T02:18:23;19.93;;;14.43;;
3597;SDS011;1813;52.016;8.714;2023-04-15T02:20:57;21.40;;;14.60;;
3597;SDS011;1813;52.016;8.714;2023-04-15T02:23:30;18.90;;;13.90;;
3597;SDS011;1813;52.016;8.714;2023-04-15T02:26:04;18.00;;;13.83;;
3597;SDS011;1813;52.016;8.714;2023-04-15T02:28:41;20.50;;;13.70;;
3597;SDS011;1813;52.016;8.714;2023-04-15T02:31:18;18.03;;;13.83;;
3597;SDS011;1813;52.016;8.714;2023-04-15T02:33:52;17.87;;;13.00;;
3597;SDS011;1813;52.016;8.714;2023-04-15T02:36:26;19.77;;;13.20;;
3597;SDS011;1813;52.016;8.714;2023-04-15T02:39:00;18.03;;;13.67;;
3597;SDS011;1813;52.016;8.714;2023-04-15T02:41:34;20.10;;;13.40;;
3597;SDS011;1813;52.016;8.714;2023-04-15T02:44:11;17.77;;;13.73;;
3597;SDS011;1813;52.016;8.714;2023-04-15T02:46:46;18.47;;;13.37;;
3597;SDS011;1813;52.016;8.714;2023-04-15T02:49:21;21.97;;;14.60;;
3597;SDS011;1813;52.016;8.714;2023-04-15T02:51:55;20.93;;;14.20;;
3597;SDS011;1813;52.016;8.714;2023-04-15T02:54:30;19.07;;;13.93;;
3597;SDS011;1813;52.016;8.714;2023-04-15T02:57:04;20.07;;;14.67;;
3597;SDS011;1813;52.016;8.714;2023-04-15T02:59:41;22.37;;;14.80;;
3597;SDS011;1813;52.016;8.714;2023-04-15T03:02:14;21.20;;;15.70;;
3597;SDS011;1813;52.016;8.714;2023-04-15T03:04:48;20.40;;;14.90;;
3597;SDS011;1813;52.016;8.714;2023-04-15T03:07:22;21.10;;;15.80;;
3597;SDS011;1813;52.016;8.714;2023-04-15T03:09:57;22.07;;;15.90;;
3597;SDS011;1813;52.016;8.714;2023-04-15T03:12:31;22.60;;;16.43;;
3597;SDS011;1813;52.016;8.714;2023-04-15T03:15:09;24.73;;;16.53;;
3597;SDS011;1813;52.016;8.714;2023-04-15T03:17:48;22.30;;;16.43;;
3597;SDS011;1813;52.016;8.714;2023-04-15T03:20:21;26.37;;;17.63;;
3597;SDS011;1813;52.016;8.714;2023-04-15T03:22:55;22.27;;;16.27;;
3597;SDS011;1813;52.016;8.714;2023-04-15T03:25:29;23.60;;;17.50;;
3597;SDS011;1813;52.016;8.714;2023-04-15T03:28:04;24.47;;;16.70;;
3597;SDS011;1813;52.016;8.714;2023-04-15T03:30:40;22.70;;;16.50;;
3597;SDS011;1813;52.016;8.714;2023-04-15T03:33:15;23.20;;;16.70;;
3597;SDS011;1813;52.016;8.714;2023-04-15T03:35:49;25.30;;;17.17;;
3597;SDS011;1813;52.016;8.714;2023-04-15T03:38:23;23.70;;;16.80;;
3597;SDS011;1813;52.016;8.714;2023-04-15T03:40:57;24.03;;;16.40;;
3597;SDS011;1813;52.016;8.714;2023-04-15T03:43:31;25.30;;;16.77;;
3597;SDS011;1813;52.016;8.714;2023-04-15T03:46:07;25.80;;;16.83;;
3597;SDS011;1813;52.016;8.714;2023-04-15T03:48:41;21.73;;;16.57;;
3597;SDS011;1813;52.016;8.714;2023-04-15T03:51:14;24.43;;;16.60;;
3597;SDS011;1813;52.016;8.714;2023-04-15T03:53:48;23.00;;;16.23;;
3597;SDS011;1813;52.016;8.714;2023-04-15T03:56:22;23.27;;;16.23;;
3597;SDS011;1813;52.016;8.714;2023-04-15T03:58:56;25.23;;;16.87;;
3597;SDS011;1813;52.016;8.714;2023-04-15T04:01:33;21.10;;;15.50;;
3597;SDS011;1813;52.016;8.714;2023-04-15T04:04:06;20.60;;;15.50;;
3597;SDS011;1813;52.016;8.714;2023-04-15T04:06:40;23.60;;;15.97;;
3597;SDS011;1813;52.016;8.714;2023-04-15T04:09:14;22.07;;;15.93;;
3597;SDS011;1813;52.016;8.714;2023-04-15T04:11:48;22.23;;;16.50;;
3597;SDS011;1813;52.016;8.714;2023-04-15T04:14:22;25.37;;;16.70;;
3597;SDS011;1813;52.016;8.714;2023-04-15T04:17:01;21.80;;;15.73;;
3597;SDS011;1813;52.016;8.714;2023-04-15T04:19:35;21.00;;;15.80;;
3597;SDS011;1813;52.016;8.714;2023-04-15T04:22:09;21.73;;;15.90;;
3597;SDS011;1813;52.016;8.714;2023-04-15T04:24:43;21.43;;;16.00;;
3597;SDS011;1813;52.016;8.714;2023-04-15T04:27:16;26.00;;;17.20;;
3597;SDS011;1813;52.016;8.714;2023-04-15T04:29:50;23.20;;;16.83;;
3597;SDS011;1813;52.016;8.714;2023-04-15T04:32:26;24.53;;;16.30;;
3597;SDS011;1813;52.016;8.714;2023-04-15T04:35:01;23.77;;;16.50;;
3597;SDS011;1813;52.016;8.714;2023-04-15T04:37:34;23.13;;;16.70;;
3597;SDS011;1813;52.016;8.714;2023-04-15T04:40:09;24.80;;;16.97;;
3597;SDS011;1813;52.016;8.714;2023-04-15T04:42:43;25.37;;;16.80;;
3597;SDS011;1813;52.016;8.714;2023-04-15T04:45:17;24.40;;;17.80;;
3597;SDS011;1813;52.016;8.714;2023-04-15T04:47:54;25.40;;;17.70;;
3597;SDS011;1813;52.016;8.714;2023-04-15T04:50:27;23.83;;;16.40;;
3597;SDS011;1813;52.016;8.714;2023-04-15T04:53:01;26.50;;;18.00;;
3597;SDS011;1813;52.016;8.714;2023-04-15T04:55:35;25.07;;;17.83;;
3597;SDS011;1813;52.016;8.714;2023-04-15T04:58:09;23.20;;;16.80;;
3597;SDS011;1813;52.016;8.714;2023-04-15T05:00:42;26.63;;;17.10;;
3597;SDS011;1813;52.016;8.714;2023-04-15T05:03:19;24.77;;;17.90;;
3597;SDS011;1813;52.016;8.714;2023-04-15T05:05:54;26.27;;;18.43;;
3597;SDS011;1813;52.016;8.714;2023-04-15T05:08:27;26.27;;;18.13;;
3597;SDS011;1813;52.016;8.714;2023-04-15T05:11:01;22.40;;;17.00;;
3597;SDS011;1813;52.016;8.714;2023-04-15T05:13:35;25.80;;;17.77;;
3597;SDS011;1813;52.016;8.714;2023-04-15T05:16:10;25.03;;;18.17;;
3597;SDS011;1813;52.016;8.714;2023-04-15T05:18:46;26.53;;;17.60;;
3597;SDS011;1813;52.016;8.714;2023-04-15T05:21:20;26.63;;;18.43;;
3597;SDS011;1813;52.016;8.714;2023-04-15T05:23:54;30.10;;;19.40;;
3597;SDS011;1813;52.016;8.714;2023-04-15T05:26:28;29.27;;;18.97;;
3597;SDS011;1813;52.016;8.714;2023-04-15T05:29:02;29.00;;;18.37;;
3597;SDS011;1813;52.016;8.714;2023-04-15T05:31:35;25.97;;;18.53;;
3597;SDS011;1813;52.016;8.714;2023-04-15T05:34:12;24.90;;;17.93;;
3597;SDS011;1813;52.016;8.714;2023-04-15T05:36:46;27.03;;;20.03;;
3597;SDS011;1813;52.016;8.714;2023-04-15T05:39:20;27.77;;;18.20;;
3597;SDS011;1813;52.016;8.714;2023-04-15T05:41:54;29.07;;;19.73;;
3597;SDS011;1813;52.016;8.714;2023-04-15T05:44:29;29.47;;;20.43;;
3597;SDS011;1813;52.016;8.714;2023-04-15T05:47:03;30.10;;;19.90;;
3597;SDS011;1813;52.016;8.714;2023-04-15T05:49:40;30.17;;;20.70;;
3597;SDS011;1813;52.016;8.714;2023-04-15T05:52:14;30.80;;;20.80;;
3597;SDS011;1813;52.016;8.714;2023-04-15T05:54:48;33.50;;;21.07;;
3597;SDS011;1813;52.016;8.714;2023-04-15T05:57:22;32.90;;;21.43;;
3597;SDS011;1813;52.016;8.714;2023-04-15T05:59:56;32.90;;;22.07;;
3597;SDS011;1813;52.016;8.714;2023-04-15T06:02:29;33.00;;;21.83;;
3597;SDS011;1813;52.016;8.714;2023-04-15T06:05:06;32.90;;;21.60;;
3597;SDS011;1813;52.016;8.714;2023-04-15T06:07:41;34.73;;;22.60;;
3597;SDS011;1813;52.016;8.714;2023-04-15T06:10:15;32.23;;;22.50;;
3597;SDS011;1813;52.016;8.714;2023-04-15T06:12:49;33.30;;;21.70;;
3597;SDS011;1813;52.016;8.714;2023-04-15T06:15:24;32.93;;;21.80;;
3597;SDS011;1813;52.016;8.714;2023-04-15T06:17:58;34.60;;;22.77;;
3597;SDS011;1813;52.016;8.714;2023-04-15T06:20:35;35.47;;;22.43;;
3597;SDS011;1813;52.016;8.714;2023-04-15T06:23:10;34.53;;;22.17;;
3597;SDS011;1813;52.016;8.714;2023-04-15T06:25:44;40.27;;;23.13;;
3597;SDS011;1813;52.016;8.714;2023-04-15T06:28:18;36.10;;;22.93;;
3597;SDS011;1813;52.016;8.714;2023-04-15T06:30:51;31.20;;;21.27;;
3597;SDS011;1813;52.016;8.714;2023-04-15T06:33:25;32.57;;;21.13;;
3597;SDS011;1813;52.016;8.714;2023-04-15T06:36:02;35.73;;;22.73;;
3597;SDS011;1813;52.016;8.714;2023-04-15T06:38:35;36.63;;;22.70;;
3597;SDS011;1813;52.016;8.714;2023-04-15T06:41:09;35.23;;;22.90;;
3597;SDS011;1813;52.016;8.714;2023-04-15T06:43:43;33.40;;;23.07;;
3597;SDS011;1813;52.016;8.714;2023-04-15T06:46:17;35.30;;;22.57;;
3597;SDS011;1813;52.016;8.714;2023-04-15T06:48:50;36.47;;;24.30;;
3597;SDS011;1813;52.016;8.714;2023-04-15T06:51:27;40.13;;;25.10;;
3597;SDS011;1813;52.016;8.714;2023-04-15T06:54:02;38.57;;;24.40;;
3597;SDS011;1813;52.016;8.714;2023-04-15T06:56:36;40.10;;;24.00;;
3597;SDS011;1813;52.016;8.714;2023-04-15T06:59:11;38.43;;;24.57;;
3597;SDS011;1813;52.016;8.714;2023-04-15T07:01:45;40.43;;;26.30;;
3597;SDS011;1813;52.016;8.714;2023-04-15T07:04:18;46.63;;;28.13;;
3597;SDS011;1813;52.016;8.714;2023-04-15T07:06:55;48.37;;;28.90;;
3597;SDS011;1813;52.016;8.714;2023-04-15T07:09:31;47.07;;;28.80;;
3597;SDS011;1813;52.016;8.714;2023-04-15T07:12:05;50.93;;;28.77;;
3597;SDS011;1813;52.016;8.714;2023-04-15T07:14:39;46.90;;;27.70;;
3597;SDS011;1813;52.016;8.714;2023-04-15T07:17:14;48.37;;;28.87;;
3597;SDS011;1813;52.016;8.714;2023-04-15T07:19:47;49.00;;;28.17;;
3597;SDS011;1813;52.016;8.714;2023-04-15T07:22:24;42.77;;;24.97;;
3597;SDS011;1813;52.016;8.714;2023-04-15T07:24:58;40.83;;;23.80;;
3597;SDS011;1813;52.016;8.714;2023-04-15T07:27:32;37.20;;;22.53;;
3597;SDS011;1813;52.016;8.714;2023-04-15T07:30:06;35.40;;;21.27;;
3597;SDS011;1813;52.016;8.714;2023-04-15T07:32:41;39.90;;;21.83;;
3597;SDS011;1813;52.016;8.714;2023-04-15T07:35:16;39.50;;;22.80;;
3597;SDS011;1813;52.016;8.714;2023-04-15T07:37:53;37.47;;;21.93;;
3597;SDS011;1813;52.016;8.714;2023-04-15T07:40:27;36.40;;;21.93;;
3597;SDS011;1813;52.016;8.714;2023-04-15T07:43:00;41.40;;;23.60;;
3597;SDS011;1813;52.016;8.714;2023-04-15T07:45:34;43.13;;;23.37;;
3597;SDS011;1813;52.016;8.714;2023-04-15T07:48:08;42.13;;;23.30;;
3597;SDS011;1813;52.016;8.714;2023-04-15T07:50:42;43.30;;;23.57;;
3597;SDS011;1813;52.016;8.714;2023-04-15T07:53:19;45.67;;;22.63;;
3597;SDS011;1813;52.016;8.714;2023-04-15T07:55:53;43.23;;;22.90;;
3597;SDS011;1813;52.016;8.714;2023-04-15T07:58:27;44.20;;;24.07;;
3597;SDS011;1813;52.016;8.714;2023-04-15T08:01:03;49.70;;;25.10;;
3597;SDS011;1813;52.016;8.714;2023-04-15T08:03:37;47.83;;;24.47;;
3597;SDS011;1813;52.016;8.714;2023-04-15T08:06:11;47.60;;;25.27;;
3597;SDS011;1813;52.016;8.714;2023-04-15T08:08:47;41.77;;;23.33;;
3597;SDS011;1813;52.016;8.714;2023-04-15T08:11:21;42.73;;;23.73;;
3597;SDS011;1813;52.016;8.714;2023-04-15T08:13:55;46.07;;;23.83;;
3597;SDS011;1813;52.016;8.714;2023-04-15T08:16:29;45.33;;;23.93;;
3597;SDS011;1813;52.016;8.714;2023-04-15T08:19:03;41.97;;;22.30;;
3597;SDS011;1813;52.016;8.714;2023-04-15T08:21:36;40.13;;;21.57;;
3597;SDS011;1813;52.016;8.714;2023-04-15T08:24:13;41.40;;;22.30;;
3597;SDS011;1813;52.016;8.714;2023-04-15T08:26:47;41.00;;;23.07;;
3597;SDS011;1813;52.016;8.714;2023-04-15T08:29:20;33.20;;;18.93;;
3597;SDS011;1813;52.016;8.714;2023-04-15T08:31:54;34.17;;;19.30;;
3597;SDS011;1813;52.016;8.714;2023-04-15T08:34:28;33.67;;;18.60;;
3597;SDS011;1813;52.016;8.714;2023-04-15T08:37:02;30.40;;;18.30;;
3597;SDS011;1813;52.016;8.714;2023-04-15T08:39:39;34.07;;;18.23;;
3597;SDS011;1813;52.016;8.714;2023-04-15T08:42:16;29.07;;;18.10;;
3597;SDS011;1813;52.016;8.714;2023-04-15T08:44:51;30.10;;;17.40;;
3597;SDS011;1813;52.016;8.714;2023-04-15T08:47:27;31.70;;;18.17;;
3597;SDS011;1813;52.016;8.714;2023-04-15T08:50:03;28.60;;;17.03;;
3597;SDS011;1813;52.016;8.714;2023-04-15T08:52:41;24.53;;;16.20;;
3597;SDS011;1813;52.016;8.714;2023-04-15T08:55:17;30.00;;;18.07;;
3597;SDS011;1813;52.016;8.714;2023-04-15T08:57:53;26.10;;;16.90;;
3597;SDS011;1813;52.016;8.714;2023-04-15T09:00:27;26.80;;;16.30;;
3597;SDS011;1813;52.016;8.714;2023-04-15T09:03:01;23.40;;;15.17;;
3597;SDS011;1813;52.016;8.714;2023-04-15T09:05:37;24.40;;;15.20;;
3597;SDS011;1813;52.016;8.714;2023-04-15T09:08:11;26.27;;;16.23;;
3597;SDS011;1813;52.016;8.714;2023-04-15T09:10:47;25.47;;;15.70;;
3597;SDS011;1813;52.016;8.714;2023-04-15T09:13:21;21.93;;;14.53;;
3597;SDS011;1813;52.016;8.714;2023-04-15T09:15:55;24.83;;;16.37;;
3597;SDS011;1813;52.016;8.714;2023-04-15T09:18:30;25.33;;;15.70;;
3597;SDS011;1813;52.016;8.714;2023-04-15T09:21:05;27.43;;;16.17;;
3597;SDS011;1813;52.016;8.714;2023-04-15T09:23:41;25.13;;;15.33;;
3597;SDS011;1813;52.016;8.714;2023-04-15T09:26:34;21.23;;;14.97;;
3597;SDS011;1813;52.016;8.714;2023-04-15T09:29:10;22.40;;;14.77;;
3597;SDS011;1813;52.016;8.714;2023-04-15T09:31:44;20.03;;;13.37;;
3597;SDS011;1813;52.016;8.714;2023-04-15T09:34:18;21.77;;;14.37;;
3597;SDS011;1813;52.016;8.714;2023-04-15T09:36:53;20.10;;;13.40;;
3597;SDS011;1813;52.016;8.714;2023-04-15T09:39:31;20.07;;;13.20;;
3597;SDS011;1813;52.016;8.714;2023-04-15T09:42:20;19.77;;;13.60;;
3597;SDS011;1813;52.016;8.714;2023-04-15T09:45:06;19.13;;;13.60;;
3597;SDS011;1813;52.016;8.714;2023-04-15T09:47:41;19.13;;;13.30;;
3597;SDS011;1813;52.016;8.714;2023-04-15T09:50:15;17.60;;;12.53;;
3597;SDS011;1813;52.016;8.714;2023-04-15T09:52:49;20.73;;;13.47;;
3597;SDS011;1813;52.016;8.714;2023-04-15T09:55:23;19.03;;;13.03;;
3597;SDS011;1813;52.016;8.714;2023-04-15T09:57:59;19.07;;;12.63;;
3597;SDS011;1813;52.016;8.714;2023-04-15T10:00:33;17.83;;;13.20;;
3597;SDS011;1813;52.016;8.714;2023-04-15T10:03:08;18.60;;;12.73;;
3597;SDS011;1813;52.016;8.714;2023-04-15T10:05:42;20.00;;;12.20;;
3597;SDS011;1813;52.016;8.714;2023-04-15T10:08:17;17.30;;;12.33;;
3597;SDS011;1813;52.016;8.714;2023-04-15T10:10:54;18.33;;;12.80;;
3597;SDS011;1813;52.016;8.714;2023-04-15T10:13:31;18.20;;;11.60;;
3597;SDS011;1813;52.016;8.714;2023-04-15T10:16:11;20.13;;;11.90;;
3597;SDS011;1813;52.016;8.714;2023-04-15T10:18:47;18.83;;;12.37;;
3597;SDS011;1813;52.016;8.714;2023-04-15T10:21:25;17.20;;;12.07;;
3597;SDS011;1813;52.016;8.714;2023-04-15T10:24:01;17.40;;;12.27;;
3597;SDS011;1813;52.016;8.714;2023-04-15T10:26:36;16.50;;;12.00;;
3597;SDS011;1813;52.016;8.714;2023-04-15T10:29:13;17.73;;;12.13;;
3597;SDS011;1813;52.016;8.714;2023-04-15T10:31:47;18.97;;;12.70;;
3597;SDS011;1813;52.016;8.714;2023-04-15T10:34:21;16.13;;;11.63;;
3597;SDS011;1813;52.016;8.714;2023-04-15T10:36:57;17.60;;;12.60;;
3597;SDS011;1813;52.016;8.714;2023-04-15T10:39:42;16.80;;;12.23;;
3597;SDS011;1813;52.016;8.714;2023-04-15T10:42:17;14.87;;;11.10;;
3597;SDS011;1813;52.016;8.714;2023-04-15T10:44:55;16.50;;;11.30;;
3597;SDS011;1813;52.016;8.714;2023-04-15T10:47:29;15.90;;;11.93;;
3597;SDS011;1813;52.016;8.714;2023-04-15T10:50:05;15.40;;;11.13;;
3597;SDS011;1813;52.016;8.714;2023-04-15T10:52:40;15.47;;;11.17;;
3597;SDS011;1813;52.016;8.714;2023-04-15T10:55:14;14.60;;;10.57;;
3597;SDS011;1813;52.016;8.714;2023-04-15T10:57:51;16.60;;;11.50;;
3597;SDS011;1813;52.016;8.714;2023-04-15T11:00:30;16.07;;;11.20;;
3597;SDS011;1813;52.016;8.714;2023-04-15T11:03:05;15.63;;;11.27;;
3597;SDS011;1813;52.016;8.714;2023-04-15T11:05:48;16.80;;;11.83;;
3597;SDS011;1813;52.016;8.714;2023-04-15T11:14:39;14.70;;;10.97;;
3597;SDS011;1813;52.016;8.714;2023-04-15T11:17:16;15.23;;;11.33;;
3597;SDS011;1813;52.016;8.714;2023-04-15T11:20:00;15.33;;;10.90;;
3597;SDS011;1813;52.016;8.714;2023-04-15T11:22:35;13.93;;;10.80;;
3597;SDS011;1813;52.016;8.714;2023-04-15T11:25:09;15.53;;;11.00;;
3597;SDS011;1813;52.016;8.714;2023-04-15T11:27:43;15.30;;;11.20;;
3597;SDS011;1813;52.016;8.714;2023-04-15T11:30:18;14.27;;;10.97;;
3597;SDS011;1813;52.016;8.714;2023-04-15T11:32:56;14.40;;;10.57;;
3597;SDS011;1813;52.016;8.714;2023-04-15T11:35:31;14.43;;;10.83;;
3597;SDS011;1813;52.016;8.714;2023-04-15T11:38:07;16.40;;;11.30;;
3597;SDS011;1813;52.016;8.714;2023-04-15T11:40:42;14.90;;;11.40;;
3597;SDS011;1813;52.016;8.714;2023-04-15T11:43:17;14.47;;;11.03;;
3597;SDS011;1813;52.016;8.714;2023-04-15T11:45:52;13.00;;;10.37;;
3597;SDS011;1813;52.016;8.714;2023-04-15T11:48:31;12.13;;;9.67;;
3597;SDS011;1813;52.016;8.714;2023-04-15T11:51:06;12.57;;;9.40;;
3597;SDS011;1813;52.016;8.714;2023-04-15T11:53:40;13.20;;;10.13;;
3597;SDS011;1813;52.016;8.714;2023-04-15T11:56:16;11.20;;;9.33;;
3597;SDS011;1813;52.016;8.714;2023-04-15T11:58:51;11.70;;;9.53;;
3597;SDS011;1813;52.016;8.714;2023-04-15T12:01:35;11.60;;;9.33;;
3597;SDS011;1813;52.016;8.714;2023-04-15T12:04:15;11.87;;;9.83;;
3597;SDS011;1813;52.016;8.714;2023-04-15T12:06:51;11.10;;;9.50;;
3597;SDS011;1813;52.016;8.714;2023-04-15T12:09:25;11.10;;;9.27;;
3597;SDS011;1813;52.016;8.714;2023-04-15T12:11:59;11.43;;;9.23;;
3597;SDS011;1813;52.016;8.714;2023-04-15T12:14:33;10.80;;;9.33;;
3597;SDS011;1813;52.016;8.714;2023-04-15T12:17:09;13.23;;;9.23;;
3597;SDS011;1813;52.016;8.714;2023-04-15T12:19:45;10.70;;;9.53;;
3597;SDS011;1813;52.016;8.714;2023-04-15T12:22:19;10.57;;;8.77;;
3597;SDS011;1813;52.016;8.714;2023-04-15T12:24:53;10.20;;;8.50;;
3597;SDS011;1813;52.016;8.714;2023-04-15T12:27:27;9.40;;;8.23;;
3597;SDS011;1813;52.016;8.714;2023-04-15T12:30:05;14.60;;;7.70;;
3597;SDS011;1813;52.016;8.714;2023-04-15T12:32:41;9.57;;;7.53;;
3597;SDS011;1813;52.016;8.714;2023-04-15T12:35:17;9.13;;;7.83;;
3597;SDS011;1813;52.016;8.714;2023-04-15T12:37:52;9.90;;;7.70;;
3597;SDS011;1813;52.016;8.714;2023-04-15T12:40:25;8.90;;;7.57;;
3597;SDS011;1813;52.016;8.714;2023-04-15T12:42:59;11.03;;;7.70;;
3597;SDS011;1813;52.016;8.714;2023-04-15T12:45:33;9.77;;;7.27;;
3597;SDS011;1813;52.016;8.714;2023-04-15T12:48:07;10.70;;;7.90;;
3597;SDS011;1813;52.016;8.714;2023-04-15T12:50:43;9.43;;;7.93;;
3597;SDS011;1813;52.016;8.714;2023-04-15T12:53:17;10.80;;;7.77;;
3597;SDS011;1813;52.016;8.714;2023-04-15T12:55:51;8.60;;;7.40;;
3597;SDS011;1813;52.016;8.714;2023-04-15T12:58:25;8.63;;;7.17;;
3597;SDS011;1813;52.016;8.714;2023-04-15T13:00:58;8.00;;;7.20;;
3597;SDS011;1813;52.016;8.714;2023-04-15T13:03:32;8.97;;;8.00;;
3597;SDS011;1813;52.016;8.714;2023-04-15T13:06:09;9.97;;;8.00;;
3597;SDS011;1813;52.016;8.714;2023-04-15T13:08:43;8.40;;;7.50;;
3597;SDS011;1813;52.016;8.714;2023-04-15T13:11:17;9.37;;;7.70;;
3597;SDS011;1813;52.016;8.714;2023-04-15T13:13:51;10.97;;;8.23;;
3597;SDS011;1813;52.016;8.714;2023-04-15T13:16:25;9.50;;;8.33;;
3597;SDS011;1813;52.016;8.714;2023-04-15T13:18:59;9.40;;;8.23;;
3597;SDS011;1813;52.016;8.714;2023-04-15T13:21:36;11.00;;;8.60;;
3597;SDS011;1813;52.016;8.714;2023-04-15T13:24:10;14.23;;;9.07;;
3597;SDS011;1813;52.016;8.714;2023-04-15T13:26:44;12.17;;;9.47;;
3597;SDS011;1813;52.016;8.714;2023-04-15T13:29:18;14.00;;;9.97;;
3597;SDS011;1813;52.016;8.714;2023-04-15T13:31:52;16.33;;;11.13;;
3597;SDS011;1813;52.016;8.714;2023-04-15T13:34:26;13.77;;;11.50;;
3597;SDS011;1813;52.016;8.714;2023-04-15T13:37:07;16.40;;;12.10;;
3597;SDS011;1813;52.016;8.714;2023-04-15T13:39:41;15.50;;;12.20;;
3597;SDS011;1813;52.016;8.714;2023-04-15T13:42:15;16.80;;;12.57;;
3597;SDS011;1813;52.016;8.714;2023-04-15T13:44:49;18.00;;;13.03;;
3597;SDS011;1813;52.016;8.714;2023-04-15T13:47:23;20.80;;;14.97;;
3597;SDS011;1813;52.016;8.714;2023-04-15T13:49:57;22.23;;;15.00;;
3597;SDS011;1813;52.016;8.714;2023-04-15T13:52:33;20.23;;;14.40;;
3597;SDS011;1813;52.016;8.714;2023-04-15T13:55:09;20.87;;;15.07;;
3597;SDS011;1813;52.016;8.714;2023-04-15T13:57:43;22.90;;;15.07;;
3597;SDS011;1813;52.016;8.714;2023-04-15T14:00:16;20.10;;;14.07;;
3597;SDS011;1813;52.016;8.714;2023-04-15T14:02:50;19.57;;;14.40;;
3597;SDS011;1813;52.016;8.714;2023-04-15T14:05:24;22.20;;;16.50;;
3597;SDS011;1813;52.016;8.714;2023-04-15T14:08:00;21.63;;;15.37;;
3597;SDS011;1813;52.016;8.714;2023-04-15T14:10:34;21.10;;;14.30;;
3597;SDS011;1813;52.016;8.714;2023-04-15T14:13:09;24.90;;;16.90;;
3597;SDS011;1813;52.016;8.714;2023-04-15T14:15:44;21.60;;;14.23;;
3597;SDS011;1813;52.016;8.714;2023-04-15T14:18:18;23.97;;;16.57;;
3597;SDS011;1813;52.016;8.714;2023-04-15T14:20:51;31.40;;;22.50;;
3597;SDS011;1813;52.016;8.714;2023-04-15T14:23:28;24.30;;;16.30;;
3597;SDS011;1813;52.016;8.714;2023-04-15T14:26:04;25.77;;;18.50;;
3597;SDS011;1813;52.016;8.714;2023-04-15T14:28:39;24.13;;;15.77;;
3597;SDS011;1813;52.016;8.714;2023-04-15T14:31:14;22.93;;;16.03;;
3597;SDS011;1813;52.016;8.714;2023-04-15T14:33:50;26.77;;;16.87;;
3597;SDS011;1813;52.016;8.714;2023-04-15T14:36:26;26.63;;;17.53;;
3597;SDS011;1813;52.016;8.714;2023-04-15T14:39:05;26.03;;;16.70;;
3597;SDS011;1813;52.016;8.714;2023-04-15T14:41:41;26.00;;;17.00;;
3597;SDS011;1813;52.016;8.714;2023-04-15T14:44:18;25.93;;;17.13;;
3597;SDS011;1813;52.016;8.714;2023-04-15T14:46:53;24.43;;;16.17;;
3597;SDS011;1813;52.016;8.714;2023-04-15T14:49:29;23.20;;;15.60;;
3597;SDS011;1813;52.016;8.714;2023-04-15T14:52:04;29.70;;;17.50;;
3597;SDS011;1813;52.016;8.714;2023-04-15T14:54:42;26.77;;;17.80;;
3597;SDS011;1813;52.016;8.714;2023-04-15T14:57:17;27.67;;;18.40;;
3597;SDS011;1813;52.016;8.714;2023-04-15T14:59:51;29.43;;;19.90;;
3597;SDS011;1813;52.016;8.714;2023-04-15T15:02:26;30.63;;;20.13;;
3597;SDS011;1813;52.016;8.714;2023-04-15T15:05:00;27.27;;;18.40;;
3597;SDS011;1813;52.016;8.714;2023-04-15T15:07:35;28.17;;;17.97;;
3597;SDS011;1813;52.016;8.714;2023-04-15T15:10:12;30.07;;;17.73;;
3597;SDS011;1813;52.016;8.714;2023-04-15T15:12:46;38.60;;;27.53;;
3597;SDS011;1813;52.016;8.714;2023-04-15T15:15:20;35.27;;;21.10;;
3597;SDS011;1813;52.016;8.714;2023-04-15T15:17:53;33.23;;;20.50;;
3597;SDS011;1813;52.016;8.714;2023-04-15T15:20:27;32.67;;;20.03;;
3597;SDS011;1813;52.016;8.714;2023-04-15T15:23:04;34.00;;;20.43;;
3597;SDS011;1813;52.016;8.714;2023-04-15T15:25:40;34.67;;;20.60;;
3597;SDS011;1813;52.016;8.714;2023-04-15T15:28:14;41.00;;;21.50;;
3597;SDS011;1813;52.016;8.714;2023-04-15T15:30:48;36.30;;;21.17;;
3597;SDS011;1813;52.016;8.714;2023-04-15T15:33:22;39.30;;;21.53;;
3597;SDS011;1813;52.016;8.714;2023-04-15T15:35:56;38.70;;;21.73;;
3597;SDS011;1813;52.016;8.714;2023-04-15T15:38:30;41.60;;;23.10;;
3597;SDS011;1813;52.016;8.714;2023-04-15T15:41:06;40.07;;;22.53;;
3597;SDS011;1813;52.016;8.714;2023-04-15T15:43:40;47.93;;;23.30;;